sensor_id;sensor_type;location;lat;lon;timestamp;temperature;humidity
12578;DHT22;6354;51.026;8.968;2022-11-11T00:02:00;7.20;99.90
12578;DHT22;6354;51.026;8.968;2022-11-11T00:04:29;7.20;99.90
12578;DHT22;6354;51.026;8.968;2022-11-11T00:06:57;7.10;99.90
12578;DHT22;6354;51.026;8.968;2022-11-11T00:09:25;7.10;99.90
12578;DHT22;6354;51.026;8.968;2022-11-11T00:11:55;7.10;99.90
12578;DHT22;6354;51.026;8.968;2022-11-11T00:14:23;7.00;99.90
12578;DHT22;6354;51.026;8.968;2022-11-11T00:16:51;6.90;99.90
12578;DHT22;6354;51.026;8.968;2022-11-11T00:19:38;6.90;99.90
12578;DHT22;6354;51.026;8.968;2022-11-11T00:22:22;6.90;99.90
12578;DHT22;6354;51.026;8.968;2022-11-11T00:25:09;6.90;99.90
12578;DHT22;6354;51.026;8.968;2022-11-11T00:27:38;7.00;99.90
12578;DHT22;6354;51.026;8.968;2022-11-11T00:30:08;7.10;99.90
12578;DHT22;6354;51.026;8.968;2022-11-11T00:32:36;7.10;99.90
12578;DHT22;6354;51.026;8.968;2022-11-11T00:35:07;7.20;99.90
12578;DHT22;6354;51.026;8.968;2022-11-11T00:37:52;7.20;99.90
12578;DHT22;6354;51.026;8.968;2022-11-11T00:40:20;7.30;99.90
12578;DHT22;6354;51.026;8.968;2022-11-11T00:42:48;7.30;99.90
12578;DHT22;6354;51.026;8.968;2022-11-11T00:45:16;7.40;99.90
12578;DHT22;6354;51.026;8.968;2022-11-11T00:47:44;7.40;99.90
12578;DHT22;6354;51.026;8.968;2022-11-11T00:50:31;7.40;99.90
12578;DHT22;6354;51.026;8.968;2022-11-11T00:53:18;7.50;99.90
12578;DHT22;6354;51.026;8.968;2022-11-11T00:55:53;7.50;99.90
12578;DHT22;6354;51.026;8.968;2022-11-11T00:58:22;7.50;99.90
12578;DHT22;6354;51.026;8.968;2022-11-11T01:00:51;7.50;99.90
12578;DHT22;6354;51.026;8.968;2022-11-11T01:03:20;7.50;99.90
12578;DHT22;6354;51.026;8.968;2022-11-11T01:05:50;7.50;99.90
12578;DHT22;6354;51.026;8.968;2022-11-11T01:08:18;7.50;99.90
12578;DHT22;6354;51.026;8.968;2022-11-11T01:10:47;7.60;99.90
12578;DHT22;6354;51.026;8.968;2022-11-11T01:13:18;7.60;99.90
12578;DHT22;6354;51.026;8.968;2022-11-11T01:15:48;7.60;99.90
12578;DHT22;6354;51.026;8.968;2022-11-11T01:18:18;7.60;99.90
12578;DHT22;6354;51.026;8.968;2022-11-11T01:20:58;7.60;99.90
12578;DHT22;6354;51.026;8.968;2022-11-11T01:23:27;7.60;99.90
12578;DHT22;6354;51.026;8.968;2022-11-11T01:26:01;7.60;99.90
12578;DHT22;6354;51.026;8.968;2022-11-11T01:28:29;7.70;99.90
12578;DHT22;6354;51.026;8.968;2022-11-11T01:31:02;7.70;99.90
12578;DHT22;6354;51.026;8.968;2022-11-11T01:33:30;7.70;99.90
12578;DHT22;6354;51.026;8.968;2022-11-11T01:36:05;7.60;99.90
12578;DHT22;6354;51.026;8.968;2022-11-11T01:38:34;7.60;99.90
12578;DHT22;6354;51.026;8.968;2022-11-11T01:41:03;7.60;99.90
12578;DHT22;6354;51.026;8.968;2022-11-11T01:43:53;7.70;99.90
12578;DHT22;6354;51.026;8.968;2022-11-11T01:46:27;7.70;99.90
12578;DHT22;6354;51.026;8.968;2022-11-11T01:49:01;7.70;99.90
12578;DHT22;6354;51.026;8.968;2022-11-11T01:51:52;7.80;99.90
12578;DHT22;6354;51.026;8.968;2022-11-11T01:54:25;7.80;99.90
12578;DHT22;6354;51.026;8.968;2022-11-11T01:56:59;7.80;99.90
12578;DHT22;6354;51.026;8.968;2022-11-11T01:59:29;7.90;99.90
12578;DHT22;6354;51.026;8.968;2022-11-11T02:02:02;7.90;99.90
12578;DHT22;6354;51.026;8.968;2022-11-11T02:04:32;7.90;99.90
12578;DHT22;6354;51.026;8.968;2022-11-11T02:07:20;7.90;99.90
12578;DHT22;6354;51.026;8.968;2022-11-11T02:09:50;7.90;99.90
12578;DHT22;6354;51.026;8.968;2022-11-11T02:12:19;7.90;99.90
12578;DHT22;6354;51.026;8.968;2022-11-11T02:15:05;7.90;99.90
12578;DHT22;6354;51.026;8.968;2022-11-11T02:17:34;7.90;99.90
12578;DHT22;6354;51.026;8.968;2022-11-11T02:20:03;8.00;99.90
12578;DHT22;6354;51.026;8.968;2022-11-11T02:22:39;8.00;99.90
12578;DHT22;6354;51.026;8.968;2022-11-11T02:25:13;8.00;99.90
12578;DHT22;6354;51.026;8.968;2022-11-11T02:27:45;8.00;99.90
12578;DHT22;6354;51.026;8.968;2022-11-11T02:30:17;8.00;99.90
12578;DHT22;6354;51.026;8.968;2022-11-11T02:32:47;8.00;99.90
12578;DHT22;6354;51.026;8.968;2022-11-11T02:35:17;7.90;99.90
12578;DHT22;6354;51.026;8.968;2022-11-11T02:37:47;8.00;99.90
12578;DHT22;6354;51.026;8.968;2022-11-11T02:40:20;8.00;99.90
12578;DHT22;6354;51.026;8.968;2022-11-11T02:42:50;8.00;99.90
12578;DHT22;6354;51.026;8.968;2022-11-11T02:45:18;8.00;99.90
12578;DHT22;6354;51.026;8.968;2022-11-11T02:47:46;8.00;99.90
12578;DHT22;6354;51.026;8.968;2022-11-11T02:50:14;8.00;99.90
12578;DHT22;6354;51.026;8.968;2022-11-11T02:52:43;8.00;99.90
12578;DHT22;6354;51.026;8.968;2022-11-11T02:55:11;8.00;99.90
12578;DHT22;6354;51.026;8.968;2022-11-11T02:57:40;8.00;99.90
12578;DHT22;6354;51.026;8.968;2022-11-11T03:00:10;8.00;99.90
12578;DHT22;6354;51.026;8.968;2022-11-11T03:02:38;8.00;99.90
12578;DHT22;6354;51.026;8.968;2022-11-11T03:05:07;8.10;99.90
12578;DHT22;6354;51.026;8.968;2022-11-11T03:07:35;8.00;99.90
12578;DHT22;6354;51.026;8.968;2022-11-11T03:10:04;8.00;99.90
12578;DHT22;6354;51.026;8.968;2022-11-11T03:12:32;8.00;99.90
12578;DHT22;6354;51.026;8.968;2022-11-11T03:15:02;8.10;99.90
12578;DHT22;6354;51.026;8.968;2022-11-11T03:17:31;8.10;99.90
12578;DHT22;6354;51.026;8.968;2022-11-11T03:20:09;8.10;99.90
12578;DHT22;6354;51.026;8.968;2022-11-11T03:23:01;8.10;99.90
12578;DHT22;6354;51.026;8.968;2022-11-11T03:25:30;8.00;99.90
12578;DHT22;6354;51.026;8.968;2022-11-11T03:28:07;8.00;99.90
12578;DHT22;6354;51.026;8.968;2022-11-11T03:30:37;8.00;99.90
12578;DHT22;6354;51.026;8.968;2022-11-11T03:33:06;8.00;99.90
12578;DHT22;6354;51.026;8.968;2022-11-11T03:35:34;8.00;99.90
12578;DHT22;6354;51.026;8.968;2022-11-11T03:38:03;8.00;99.90
12578;DHT22;6354;51.026;8.968;2022-11-11T03:40:51;8.00;99.90
12578;DHT22;6354;51.026;8.968;2022-11-11T03:43:21;7.90;99.90
12578;DHT22;6354;51.026;8.968;2022-11-11T03:45:51;7.90;99.90
12578;DHT22;6354;51.026;8.968;2022-11-11T03:48:20;7.90;99.90
12578;DHT22;6354;51.026;8.968;2022-11-11T03:50:48;7.80;99.90
12578;DHT22;6354;51.026;8.968;2022-11-11T03:53:17;7.80;99.90
12578;DHT22;6354;51.026;8.968;2022-11-11T03:55:47;7.70;99.90
12578;DHT22;6354;51.026;8.968;2022-11-11T03:58:16;7.70;99.90
12578;DHT22;6354;51.026;8.968;2022-11-11T04:00:45;7.70;99.90
12578;DHT22;6354;51.026;8.968;2022-11-11T04:03:16;7.70;99.90
12578;DHT22;6354;51.026;8.968;2022-11-11T04:06:02;7.70;99.90
12578;DHT22;6354;51.026;8.968;2022-11-11T04:08:44;7.70;99.90
12578;DHT22;6354;51.026;8.968;2022-11-11T04:11:32;7.80;99.90
12578;DHT22;6354;51.026;8.968;2022-11-11T04:14:03;7.90;99.90
12578;DHT22;6354;51.026;8.968;2022-11-11T04:16:50;7.90;99.90
12578;DHT22;6354;51.026;8.968;2022-11-11T04:19:20;7.90;99.90
12578;DHT22;6354;51.026;8.968;2022-11-11T04:22:05;7.90;99.90
12578;DHT22;6354;51.026;8.968;2022-11-11T04:24:33;7.80;99.90
12578;DHT22;6354;51.026;8.968;2022-11-11T04:27:19;7.90;99.90
12578;DHT22;6354;51.026;8.968;2022-11-11T04:29:47;7.90;99.90
12578;DHT22;6354;51.026;8.968;2022-11-11T04:32:17;7.90;99.90
12578;DHT22;6354;51.026;8.968;2022-11-11T04:35:09;7.80;99.90
12578;DHT22;6354;51.026;8.968;2022-11-11T04:37:44;7.80;99.90
12578;DHT22;6354;51.026;8.968;2022-11-11T04:40:13;7.80;99.90
12578;DHT22;6354;51.026;8.968;2022-11-11T04:42:58;7.80;99.90
12578;DHT22;6354;51.026;8.968;2022-11-11T04:45:26;7.80;99.90
12578;DHT22;6354;51.026;8.968;2022-11-11T04:47:55;7.80;99.90
12578;DHT22;6354;51.026;8.968;2022-11-11T04:50:27;7.80;99.90
12578;DHT22;6354;51.026;8.968;2022-11-11T04:52:55;7.80;99.90
12578;DHT22;6354;51.026;8.968;2022-11-11T04:55:24;7.80;99.90
12578;DHT22;6354;51.026;8.968;2022-11-11T04:58:10;7.80;99.90
12578;DHT22;6354;51.026;8.968;2022-11-11T05:00:38;7.80;99.90
12578;DHT22;6354;51.026;8.968;2022-11-11T05:03:08;7.70;99.90
12578;DHT22;6354;51.026;8.968;2022-11-11T05:05:44;7.80;99.90
12578;DHT22;6354;51.026;8.968;2022-11-11T05:08:30;7.80;99.90
12578;DHT22;6354;51.026;8.968;2022-11-11T05:11:17;7.70;99.90
12578;DHT22;6354;51.026;8.968;2022-11-11T05:13:45;7.70;99.90
12578;DHT22;6354;51.026;8.968;2022-11-11T05:16:33;7.80;99.90
12578;DHT22;6354;51.026;8.968;2022-11-11T05:19:21;7.80;99.90
12578;DHT22;6354;51.026;8.968;2022-11-11T05:22:12;7.90;99.90
12578;DHT22;6354;51.026;8.968;2022-11-11T05:24:41;7.80;99.90
12578;DHT22;6354;51.026;8.968;2022-11-11T05:27:26;7.80;99.90
12578;DHT22;6354;51.026;8.968;2022-11-11T05:29:55;7.80;99.90
12578;DHT22;6354;51.026;8.968;2022-11-11T05:32:23;7.80;99.90
12578;DHT22;6354;51.026;8.968;2022-11-11T05:34:51;7.80;99.90
12578;DHT22;6354;51.026;8.968;2022-11-11T05:37:21;7.80;99.90
12578;DHT22;6354;51.026;8.968;2022-11-11T05:39:49;7.90;99.90
12578;DHT22;6354;51.026;8.968;2022-11-11T05:42:17;7.90;99.90
12578;DHT22;6354;51.026;8.968;2022-11-11T05:44:46;7.90;99.90
12578;DHT22;6354;51.026;8.968;2022-11-11T05:47:14;7.80;99.90
12578;DHT22;6354;51.026;8.968;2022-11-11T05:49:42;7.80;99.90
12578;DHT22;6354;51.026;8.968;2022-11-11T05:52:11;7.80;99.90
12578;DHT22;6354;51.026;8.968;2022-11-11T05:54:40;7.80;99.90
12578;DHT22;6354;51.026;8.968;2022-11-11T05:57:09;7.80;99.90
12578;DHT22;6354;51.026;8.968;2022-11-11T05:59:37;7.80;99.90
12578;DHT22;6354;51.026;8.968;2022-11-11T06:02:05;7.80;99.90
12578;DHT22;6354;51.026;8.968;2022-11-11T06:04:33;7.80;99.90
12578;DHT22;6354;51.026;8.968;2022-11-11T06:07:01;7.80;99.90
12578;DHT22;6354;51.026;8.968;2022-11-11T06:09:30;7.70;99.90
12578;DHT22;6354;51.026;8.968;2022-11-11T06:11:59;7.80;99.90
12578;DHT22;6354;51.026;8.968;2022-11-11T06:14:27;7.70;99.90
12578;DHT22;6354;51.026;8.968;2022-11-11T06:16:55;7.70;99.90
12578;DHT22;6354;51.026;8.968;2022-11-11T06:19:23;7.70;99.90
12578;DHT22;6354;51.026;8.968;2022-11-11T06:21:51;7.70;99.90
12578;DHT22;6354;51.026;8.968;2022-11-11T06:24:26;7.70;99.90
12578;DHT22;6354;51.026;8.968;2022-11-11T06:26:55;7.60;99.90
12578;DHT22;6354;51.026;8.968;2022-11-11T06:29:24;7.60;99.90
12578;DHT22;6354;51.026;8.968;2022-11-11T06:31:52;7.60;99.90
12578;DHT22;6354;51.026;8.968;2022-11-11T06:34:20;7.60;99.90
12578;DHT22;6354;51.026;8.968;2022-11-11T06:36:48;7.60;99.90
12578;DHT22;6354;51.026;8.968;2022-11-11T06:39:17;7.50;99.90
12578;DHT22;6354;51.026;8.968;2022-11-11T06:41:45;7.50;99.90
12578;DHT22;6354;51.026;8.968;2022-11-11T06:44:13;7.50;99.90
12578;DHT22;6354;51.026;8.968;2022-11-11T06:46:42;7.50;99.90
12578;DHT22;6354;51.026;8.968;2022-11-11T06:49:10;7.50;99.90
12578;DHT22;6354;51.026;8.968;2022-11-11T06:51:38;7.60;99.90
12578;DHT22;6354;51.026;8.968;2022-11-11T06:54:06;7.60;99.90
12578;DHT22;6354;51.026;8.968;2022-11-11T06:56:34;7.60;99.90
12578;DHT22;6354;51.026;8.968;2022-11-11T06:59:02;7.60;99.90
12578;DHT22;6354;51.026;8.968;2022-11-11T07:01:30;7.70;99.90
12578;DHT22;6354;51.026;8.968;2022-11-11T07:04:00;7.70;99.90
12578;DHT22;6354;51.026;8.968;2022-11-11T07:06:28;7.60;99.90
12578;DHT22;6354;51.026;8.968;2022-11-11T07:08:56;7.60;99.90
12578;DHT22;6354;51.026;8.968;2022-11-11T07:11:24;7.60;99.90
12578;DHT22;6354;51.026;8.968;2022-11-11T07:13:52;7.60;99.90
12578;DHT22;6354;51.026;8.968;2022-11-11T07:16:20;7.60;99.90
12578;DHT22;6354;51.026;8.968;2022-11-11T07:18:48;7.60;99.90
12578;DHT22;6354;51.026;8.968;2022-11-11T07:21:18;7.50;99.90
12578;DHT22;6354;51.026;8.968;2022-11-11T07:23:46;7.50;99.90
12578;DHT22;6354;51.026;8.968;2022-11-11T07:26:14;7.60;99.90
12578;DHT22;6354;51.026;8.968;2022-11-11T07:28:42;7.50;99.90
12578;DHT22;6354;51.026;8.968;2022-11-11T07:31:10;7.50;99.90
12578;DHT22;6354;51.026;8.968;2022-11-11T07:33:38;7.50;99.90
12578;DHT22;6354;51.026;8.968;2022-11-11T07:36:07;7.60;99.90
12578;DHT22;6354;51.026;8.968;2022-11-11T07:38:36;7.70;99.90
12578;DHT22;6354;51.026;8.968;2022-11-11T07:41:04;7.70;99.90
12578;DHT22;6354;51.026;8.968;2022-11-11T07:43:32;7.70;99.90
12578;DHT22;6354;51.026;8.968;2022-11-11T07:46:01;7.70;99.90
12578;DHT22;6354;51.026;8.968;2022-11-11T07:48:29;7.70;99.90
12578;DHT22;6354;51.026;8.968;2022-11-11T07:50:57;7.80;99.90
12578;DHT22;6354;51.026;8.968;2022-11-11T07:53:25;7.70;99.90
12578;DHT22;6354;51.026;8.968;2022-11-11T07:55:55;7.80;99.90
12578;DHT22;6354;51.026;8.968;2022-11-11T07:58:23;7.80;99.90
12578;DHT22;6354;51.026;8.968;2022-11-11T08:00:52;7.80;99.90
12578;DHT22;6354;51.026;8.968;2022-11-11T08:03:20;7.90;99.90
12578;DHT22;6354;51.026;8.968;2022-11-11T08:05:49;7.90;99.90
12578;DHT22;6354;51.026;8.968;2022-11-11T08:08:17;8.00;99.90
12578;DHT22;6354;51.026;8.968;2022-11-11T08:10:54;7.90;99.90
12578;DHT22;6354;51.026;8.968;2022-11-11T08:13:22;8.00;99.90
12578;DHT22;6354;51.026;8.968;2022-11-11T08:16:08;8.00;99.90
12578;DHT22;6354;51.026;8.968;2022-11-11T08:18:36;8.00;99.90
12578;DHT22;6354;51.026;8.968;2022-11-11T08:21:04;8.00;99.90
12578;DHT22;6354;51.026;8.968;2022-11-11T08:23:34;8.10;99.90
12578;DHT22;6354;51.026;8.968;2022-11-11T08:26:24;8.10;99.90
12578;DHT22;6354;51.026;8.968;2022-11-11T08:28:55;8.10;99.90
12578;DHT22;6354;51.026;8.968;2022-11-11T08:31:23;8.20;99.90
12578;DHT22;6354;51.026;8.968;2022-11-11T08:33:52;8.20;99.90
12578;DHT22;6354;51.026;8.968;2022-11-11T08:36:20;8.20;99.90
12578;DHT22;6354;51.026;8.968;2022-11-11T08:38:51;8.30;99.90
12578;DHT22;6354;51.026;8.968;2022-11-11T08:41:19;8.40;99.90
12578;DHT22;6354;51.026;8.968;2022-11-11T08:43:52;8.40;99.90
12578;DHT22;6354;51.026;8.968;2022-11-11T08:46:21;8.40;99.90
12578;DHT22;6354;51.026;8.968;2022-11-11T08:48:50;8.30;99.90
12578;DHT22;6354;51.026;8.968;2022-11-11T08:51:18;8.40;99.90
12578;DHT22;6354;51.026;8.968;2022-11-11T08:53:46;8.40;99.90
12578;DHT22;6354;51.026;8.968;2022-11-11T08:56:14;8.40;99.90
12578;DHT22;6354;51.026;8.968;2022-11-11T08:58:43;8.40;99.90
12578;DHT22;6354;51.026;8.968;2022-11-11T09:01:13;8.50;99.90
12578;DHT22;6354;51.026;8.968;2022-11-11T09:03:41;8.60;99.90
12578;DHT22;6354;51.026;8.968;2022-11-11T09:06:12;8.60;99.90
12578;DHT22;6354;51.026;8.968;2022-11-11T09:08:41;8.70;99.90
12578;DHT22;6354;51.026;8.968;2022-11-11T09:11:11;8.80;99.90
12578;DHT22;6354;51.026;8.968;2022-11-11T09:13:39;9.00;99.90
12578;DHT22;6354;51.026;8.968;2022-11-11T09:16:08;9.10;99.90
12578;DHT22;6354;51.026;8.968;2022-11-11T09:18:37;9.10;99.90
12578;DHT22;6354;51.026;8.968;2022-11-11T09:21:05;9.00;99.90
12578;DHT22;6354;51.026;8.968;2022-11-11T09:23:34;9.10;99.90
12578;DHT22;6354;51.026;8.968;2022-11-11T09:26:02;9.10;99.90
12578;DHT22;6354;51.026;8.968;2022-11-11T09:28:31;9.30;99.90
12578;DHT22;6354;51.026;8.968;2022-11-11T09:31:00;9.40;99.90
12578;DHT22;6354;51.026;8.968;2022-11-11T09:33:51;9.40;99.90
12578;DHT22;6354;51.026;8.968;2022-11-11T09:36:20;9.40;99.90
12578;DHT22;6354;51.026;8.968;2022-11-11T09:38:48;9.50;99.90
12578;DHT22;6354;51.026;8.968;2022-11-11T09:41:21;9.50;99.90
12578;DHT22;6354;51.026;8.968;2022-11-11T09:43:56;9.40;99.90
12578;DHT22;6354;51.026;8.968;2022-11-11T09:46:43;9.30;99.90
12578;DHT22;6354;51.026;8.968;2022-11-11T09:49:27;9.20;99.90
12578;DHT22;6354;51.026;8.968;2022-11-11T09:52:04;9.20;99.90
12578;DHT22;6354;51.026;8.968;2022-11-11T09:54:37;9.30;99.90
12578;DHT22;6354;51.026;8.968;2022-11-11T09:57:14;9.30;99.90
12578;DHT22;6354;51.026;8.968;2022-11-11T09:59:46;9.50;99.90
12578;DHT22;6354;51.026;8.968;2022-11-11T10:02:24;9.60;99.90
12578;DHT22;6354;51.026;8.968;2022-11-11T10:04:59;9.60;99.90
12578;DHT22;6354;51.026;8.968;2022-11-11T10:07:34;9.50;99.90
12578;DHT22;6354;51.026;8.968;2022-11-11T10:10:10;9.60;99.90
12578;DHT22;6354;51.026;8.968;2022-11-11T10:12:46;9.60;99.90
12578;DHT22;6354;51.026;8.968;2022-11-11T10:15:19;9.60;99.90
12578;DHT22;6354;51.026;8.968;2022-11-11T10:17:57;9.60;99.90
12578;DHT22;6354;51.026;8.968;2022-11-11T10:20:38;9.60;99.90
12578;DHT22;6354;51.026;8.968;2022-11-11T10:23:13;9.70;99.90
12578;DHT22;6354;51.026;8.968;2022-11-11T10:25:48;9.70;99.90
12578;DHT22;6354;51.026;8.968;2022-11-11T10:28:20;9.80;99.90
12578;DHT22;6354;51.026;8.968;2022-11-11T10:30:50;9.80;99.90
12578;DHT22;6354;51.026;8.968;2022-11-11T10:33:21;9.80;99.90
12578;DHT22;6354;51.026;8.968;2022-11-11T10:35:52;9.80;99.90
12578;DHT22;6354;51.026;8.968;2022-11-11T10:38:30;9.90;99.90
12578;DHT22;6354;51.026;8.968;2022-11-11T10:41:04;10.00;99.90
12578;DHT22;6354;51.026;8.968;2022-11-11T10:43:36;10.20;99.90
12578;DHT22;6354;51.026;8.968;2022-11-11T10:46:10;10.30;99.90
12578;DHT22;6354;51.026;8.968;2022-11-11T10:48:50;10.20;99.90
12578;DHT22;6354;51.026;8.968;2022-11-11T10:51:22;10.30;99.90
12578;DHT22;6354;51.026;8.968;2022-11-11T10:53:59;10.30;99.90
12578;DHT22;6354;51.026;8.968;2022-11-11T10:56:34;10.30;99.90
12578;DHT22;6354;51.026;8.968;2022-11-11T10:59:10;10.20;99.90
12578;DHT22;6354;51.026;8.968;2022-11-11T11:01:42;10.30;99.90
12578;DHT22;6354;51.026;8.968;2022-11-11T11:04:16;10.30;99.90
12578;DHT22;6354;51.026;8.968;2022-11-11T11:06:49;10.30;99.90
12578;DHT22;6354;51.026;8.968;2022-11-11T11:09:24;10.40;99.90
12578;DHT22;6354;51.026;8.968;2022-11-11T11:11:57;10.40;99.90
12578;DHT22;6354;51.026;8.968;2022-11-11T11:14:30;10.40;99.90
12578;DHT22;6354;51.026;8.968;2022-11-11T11:17:05;10.40;99.90
12578;DHT22;6354;51.026;8.968;2022-11-11T11:19:35;10.40;99.90
12578;DHT22;6354;51.026;8.968;2022-11-11T11:22:04;10.30;99.90
12578;DHT22;6354;51.026;8.968;2022-11-11T11:24:34;10.30;99.90
12578;DHT22;6354;51.026;8.968;2022-11-11T11:27:09;10.30;99.90
12578;DHT22;6354;51.026;8.968;2022-11-11T11:29:38;10.30;99.90
12578;DHT22;6354;51.026;8.968;2022-11-11T11:32:16;10.40;99.90
12578;DHT22;6354;51.026;8.968;2022-11-11T11:34:48;10.30;99.90
12578;DHT22;6354;51.026;8.968;2022-11-11T11:37:19;10.30;99.90
12578;DHT22;6354;51.026;8.968;2022-11-11T11:39:48;10.30;99.90
12578;DHT22;6354;51.026;8.968;2022-11-11T11:42:30;10.40;99.90
12578;DHT22;6354;51.026;8.968;2022-11-11T11:45:23;10.30;99.90
12578;DHT22;6354;51.026;8.968;2022-11-11T11:48:04;10.30;99.90
12578;DHT22;6354;51.026;8.968;2022-11-11T11:51:03;10.30;99.90
12578;DHT22;6354;51.026;8.968;2022-11-11T11:53:47;10.40;99.90
12578;DHT22;6354;51.026;8.968;2022-11-11T11:56:27;10.40;99.90
12578;DHT22;6354;51.026;8.968;2022-11-11T11:59:03;10.50;99.90
12578;DHT22;6354;51.026;8.968;2022-11-11T12:01:37;10.50;99.90
12578;DHT22;6354;51.026;8.968;2022-11-11T12:04:33;10.60;99.90
12578;DHT22;6354;51.026;8.968;2022-11-11T12:07:13;10.60;99.90
12578;DHT22;6354;51.026;8.968;2022-11-11T12:09:57;10.70;99.90
12578;DHT22;6354;51.026;8.968;2022-11-11T12:12:36;10.60;99.90
12578;DHT22;6354;51.026;8.968;2022-11-11T12:15:21;10.70;99.90
12578;DHT22;6354;51.026;8.968;2022-11-11T12:17:57;10.60;99.90
12578;DHT22;6354;51.026;8.968;2022-11-11T12:20:37;10.70;99.90
12578;DHT22;6354;51.026;8.968;2022-11-11T12:23:16;10.60;99.90
12578;DHT22;6354;51.026;8.968;2022-11-11T12:26:00;10.70;99.90
12578;DHT22;6354;51.026;8.968;2022-11-11T12:28:45;10.70;99.90
12578;DHT22;6354;51.026;8.968;2022-11-11T12:31:24;10.70;99.90
12578;DHT22;6354;51.026;8.968;2022-11-11T12:34:14;10.70;99.90
12578;DHT22;6354;51.026;8.968;2022-11-11T12:36:50;10.70;99.90
12578;DHT22;6354;51.026;8.968;2022-11-11T12:39:35;10.70;99.90
12578;DHT22;6354;51.026;8.968;2022-11-11T12:42:12;10.70;99.90
12578;DHT22;6354;51.026;8.968;2022-11-11T12:44:54;10.70;99.90
12578;DHT22;6354;51.026;8.968;2022-11-11T12:47:33;10.80;99.90
12578;DHT22;6354;51.026;8.968;2022-11-11T12:50:14;10.80;99.90
12578;DHT22;6354;51.026;8.968;2022-11-11T12:53:01;10.70;99.90
12578;DHT22;6354;51.026;8.968;2022-11-11T12:55:36;10.70;99.90
12578;DHT22;6354;51.026;8.968;2022-11-11T12:58:18;10.70;99.90
12578;DHT22;6354;51.026;8.968;2022-11-11T13:01:03;10.70;99.90
12578;DHT22;6354;51.026;8.968;2022-11-11T13:03:48;10.70;99.90
12578;DHT22;6354;51.026;8.968;2022-11-11T13:06:31;10.70;99.90
12578;DHT22;6354;51.026;8.968;2022-11-11T13:09:28;10.80;99.90
12578;DHT22;6354;51.026;8.968;2022-11-11T13:12:03;10.70;99.90
12578;DHT22;6354;51.026;8.968;2022-11-11T13:14:46;10.70;99.90
12578;DHT22;6354;51.026;8.968;2022-11-11T13:17:17;10.70;99.90
12578;DHT22;6354;51.026;8.968;2022-11-11T13:19:48;10.70;99.90
12578;DHT22;6354;51.026;8.968;2022-11-11T13:22:21;10.70;99.90
12578;DHT22;6354;51.026;8.968;2022-11-11T13:24:50;10.70;99.90
12578;DHT22;6354;51.026;8.968;2022-11-11T13:27:28;10.70;99.90
12578;DHT22;6354;51.026;8.968;2022-11-11T13:33:05;10.70;99.90
12578;DHT22;6354;51.026;8.968;2022-11-11T13:35:36;10.70;99.90
12578;DHT22;6354;51.026;8.968;2022-11-11T13:38:10;10.70;99.90
12578;DHT22;6354;51.026;8.968;2022-11-11T13:40:42;10.70;99.90
12578;DHT22;6354;51.026;8.968;2022-11-11T13:43:17;10.70;99.90
12578;DHT22;6354;51.026;8.968;2022-11-11T13:45:50;10.70;99.90
12578;DHT22;6354;51.026;8.968;2022-11-11T13:48:24;10.70;99.90
12578;DHT22;6354;51.026;8.968;2022-11-11T13:51:11;10.70;99.90
12578;DHT22;6354;51.026;8.968;2022-11-11T13:53:40;10.70;99.90
12578;DHT22;6354;51.026;8.968;2022-11-11T13:56:10;10.70;99.90
12578;DHT22;6354;51.026;8.968;2022-11-11T13:58:41;10.70;99.90
12578;DHT22;6354;51.026;8.968;2022-11-11T14:01:15;10.80;99.90
12578;DHT22;6354;51.026;8.968;2022-11-11T14:04:03;10.70;99.90
12578;DHT22;6354;51.026;8.968;2022-11-11T14:06:49;10.70;99.90
12578;DHT22;6354;51.026;8.968;2022-11-11T14:09:52;10.70;99.90
12578;DHT22;6354;51.026;8.968;2022-11-11T14:12:36;10.70;99.90
12578;DHT22;6354;51.026;8.968;2022-11-11T14:17:55;10.70;99.90
12578;DHT22;6354;51.026;8.968;2022-11-11T14:20:36;10.70;99.90
12578;DHT22;6354;51.026;8.968;2022-11-11T14:23:23;10.70;99.90
12578;DHT22;6354;51.026;8.968;2022-11-11T14:26:26;10.70;99.90
12578;DHT22;6354;51.026;8.968;2022-11-11T14:28:56;10.70;99.90
12578;DHT22;6354;51.026;8.968;2022-11-11T14:31:52;10.60;99.90
12578;DHT22;6354;51.026;8.968;2022-11-11T14:34:53;10.60;99.90
12578;DHT22;6354;51.026;8.968;2022-11-11T14:37:38;10.60;99.90
12578;DHT22;6354;51.026;8.968;2022-11-11T14:40:24;10.60;99.90
12578;DHT22;6354;51.026;8.968;2022-11-11T14:42:52;10.60;99.90
12578;DHT22;6354;51.026;8.968;2022-11-11T14:48:56;10.50;99.90
12578;DHT22;6354;51.026;8.968;2022-11-11T14:54:36;10.40;99.90
12578;DHT22;6354;51.026;8.968;2022-11-11T14:57:17;10.40;99.90
12578;DHT22;6354;51.026;8.968;2022-11-11T14:59:48;10.40;99.90
12578;DHT22;6354;51.026;8.968;2022-11-11T15:02:39;10.30;99.90
12578;DHT22;6354;51.026;8.968;2022-11-11T15:05:13;10.30;99.90
12578;DHT22;6354;51.026;8.968;2022-11-11T15:08:02;10.20;99.90
12578;DHT22;6354;51.026;8.968;2022-11-11T15:10:56;10.20;99.90
12578;DHT22;6354;51.026;8.968;2022-11-11T15:13:46;10.20;99.90
12578;DHT22;6354;51.026;8.968;2022-11-11T15:16:27;10.10;99.90
12578;DHT22;6354;51.026;8.968;2022-11-11T15:19:19;10.10;99.90
12578;DHT22;6354;51.026;8.968;2022-11-11T15:22:00;10.00;99.90
12578;DHT22;6354;51.026;8.968;2022-11-11T15:24:38;10.00;99.90
12578;DHT22;6354;51.026;8.968;2022-11-11T15:27:19;10.00;99.90
12578;DHT22;6354;51.026;8.968;2022-11-11T15:30:05;9.90;99.90
12578;DHT22;6354;51.026;8.968;2022-11-11T15:32:48;9.90;99.90
12578;DHT22;6354;51.026;8.968;2022-11-11T15:35:31;9.80;99.90
12578;DHT22;6354;51.026;8.968;2022-11-11T15:38:02;9.70;99.90
12578;DHT22;6354;51.026;8.968;2022-11-11T15:40:42;9.70;99.90
12578;DHT22;6354;51.026;8.968;2022-11-11T15:43:18;9.60;99.90
12578;DHT22;6354;51.026;8.968;2022-11-11T15:45:50;9.60;99.90
12578;DHT22;6354;51.026;8.968;2022-11-11T15:48:21;9.60;99.90
12578;DHT22;6354;51.026;8.968;2022-11-11T15:50:50;9.50;99.90
12578;DHT22;6354;51.026;8.968;2022-11-11T15:53:22;9.50;99.90
12578;DHT22;6354;51.026;8.968;2022-11-11T15:55:52;9.40;99.90
12578;DHT22;6354;51.026;8.968;2022-11-11T15:58:26;9.30;99.90
12578;DHT22;6354;51.026;8.968;2022-11-11T16:00:56;9.30;99.90
12578;DHT22;6354;51.026;8.968;2022-11-11T16:03:30;9.30;99.90
12578;DHT22;6354;51.026;8.968;2022-11-11T16:05:59;9.20;99.90
12578;DHT22;6354;51.026;8.968;2022-11-11T16:08:27;9.20;99.90
12578;DHT22;6354;51.026;8.968;2022-11-11T16:10:57;9.20;99.90
12578;DHT22;6354;51.026;8.968;2022-11-11T16:13:30;9.10;99.90
12578;DHT22;6354;51.026;8.968;2022-11-11T16:16:03;9.00;99.90
12578;DHT22;6354;51.026;8.968;2022-11-11T16:18:37;9.00;99.90
12578;DHT22;6354;51.026;8.968;2022-11-11T16:21:09;9.00;99.90
12578;DHT22;6354;51.026;8.968;2022-11-11T16:23:39;8.90;99.90
12578;DHT22;6354;51.026;8.968;2022-11-11T16:26:07;8.80;99.90
12578;DHT22;6354;51.026;8.968;2022-11-11T16:28:40;8.80;99.90
12578;DHT22;6354;51.026;8.968;2022-11-11T16:31:36;8.70;99.90
12578;DHT22;6354;51.026;8.968;2022-11-11T16:34:42;8.60;99.90
12578;DHT22;6354;51.026;8.968;2022-11-11T16:37:13;8.60;99.90
12578;DHT22;6354;51.026;8.968;2022-11-11T16:39:42;8.50;99.90
12578;DHT22;6354;51.026;8.968;2022-11-11T16:42:19;8.40;99.90
12578;DHT22;6354;51.026;8.968;2022-11-11T16:44:53;8.40;99.90
12578;DHT22;6354;51.026;8.968;2022-11-11T16:47:42;8.30;99.90
12578;DHT22;6354;51.026;8.968;2022-11-11T16:50:15;8.30;99.90
12578;DHT22;6354;51.026;8.968;2022-11-11T16:52:47;8.20;99.90
12578;DHT22;6354;51.026;8.968;2022-11-11T16:55:21;8.10;99.90